Portada
METAR-TAF:

METAR-TAF

Aeroports :

Bentonville Municipal Airport/Louise M Thaden Field

Bentonville, Arkansas, Estats Units d'Amèrica

latitud: 36-21N, longitud: 094-13W, altitud: 395 m

Observació

L'informe es va fer fa 47 minuts, a les 07:56 UTC
Vent 6 kt del Nord/Nord-Est
Temperatura 21°C
Humitat 88%
Pressió 1020 hPa
Visibilitat: 16.1 km
Cel cobert a una alçada de 8000 ft

METAR: KVBT 180756Z AUTO 03006KT 10SM OVC080 21/19 A3012 RMK AO2 SLP190 T02060194

Hora: 03:43 (08:43 UTC)


TAF: manca

Observacions i pronòstics meteorològics de més de 4000 aeroports (METAR i TAF).

Les estacions disponibles són els punts grocs i vermells al mapa.

Posi el ratolí al punt desitjat per veure el nom de l'estació.

Feu clic per veure les observacions i els pronòstics meteorològics.

Per canviar el mapa: feu clic els botons verds amb una creu de color negre per apropar; al botó verd amb un guió per allunyar la imatge; o en les fletxes verdes per a mapes adjacents.


METAR-TAF: